Time;durP1;ratioP1;P1;durP2;ratioP2;P2;SDS_P1;SDS_P2;PMS_P1;PMS_P2;Temp;Humidity;BMP_temperature;BMP_pressure;BME280_temperature;BME280_humidity;BME280_pressure;Samples;Min_cycle;Max_cycle;Signal;HPM_P1;HPM_P2
2021/10/05 10:35:38;;;;;;;1.02;0.49;;;;;;;18.16;59.76;98645.84;1981593;82;20226;-82
2021/10/05 10:39:24;;;;;;;3.17;0.44;;;;;;;18.21;59.07;98635.09;1978800;82;20261;-83
2021/10/05 10:44:01;;;;;;;4.64;0.70;;;;;;;18.13;58.46;98645.94;2054798;72;20154;-80
2021/10/05 10:51:11;;;;;;;0.88;0.36;;;;;;;18.44;58.47;98621.69;2043350;72;20201;-82
2021/10/05 10:55:28;;;;;;;2.85;0.41;;;;;;;18.31;58.50;98615.31;1993131;82;20222;-81
2021/10/05 10:59:53;;;;;;;0.66;0.50;;;;;;;18.45;59.15;98612.88;1979230;82;20385;-81
2021/10/05 11:03:35;;;;;;;1.36;0.60;;;;;;;18.41;56.63;98603.44;1974985;82;20222;-79
2021/10/05 11:07:33;;;;;;;3.50;0.49;;;;;;;18.33;58.39;98600.34;1980289;82;20146;-82
2021/10/05 11:10:37;;;;;;;1.42;0.40;;;;;;;18.17;57.22;98587.09;1980325;82;20135;-82
2021/10/05 11:13:50;;;;;;;0.89;0.34;;;;;;;18.08;58.25;98598.03;1988124;82;20162;-82
2021/10/05 11:17:23;;;;;;;1.14;0.50;;;;;;;18.09;58.10;98582.19;1982582;82;20384;-81
2021/10/05 11:20:57;;;;;;;1.11;0.40;;;;;;;17.90;57.88;98581.38;1979147;82;20155;-82
2021/10/05 11:24:02;;;;;;;3.01;0.50;;;;;;;17.90;57.41;98562.13;1986708;82;20262;-82
2021/10/05 11:27:19;;;;;;;1.11;0.30;;;;;;;18.01;59.01;98581.72;1979126;82;20147;-81
2021/10/05 11:30:22;;;;;;;2.61;0.30;;;;;;;18.12;58.64;98574.16;1981703;82;20210;-81
2021/10/05 11:33:27;;;;;;;1.79;0.30;;;;;;;18.17;57.52;98568.72;1982639;82;20257;-82
2021/10/05 11:36:32;;;;;;;1.98;0.30;;;;;;;18.29;57.99;98557.56;1987039;82;20135;-81
2021/10/05 11:39:37;;;;;;;1.21;0.39;;;;;;;18.41;57.32;98556.97;1981174;82;20845;-81
2021/10/05 11:42:39;;;;;;;1.26;0.30;;;;;;;18.43;55.90;98549.03;1979677;82;20166;-80
2021/10/05 11:45:42;;;;;;;0.90;0.30;;;;;;;18.44;55.82;98553.34;1982567;82;20199;-82
2021/10/05 11:49:03;;;;;;;1.74;0.30;;;;;;;18.49;55.35;98539.97;1984727;82;20204;-81
2021/10/05 11:52:14;;;;;;;0.44;0.29;;;;;;;18.47;54.92;98550.56;1986862;82;20123;-81
2021/10/05 11:55:16;;;;;;;1.26;0.30;;;;;;;18.42;54.98;98549.94;1980147;82;20206;-82
2021/10/05 11:58:19;;;;;;;2.59;0.30;;;;;;;18.32;55.55;98552.19;1980994;82;20159;-80
2021/10/05 12:01:28;;;;;;;1.49;0.31;;;;;;;18.08;55.77;98553.38;1984092;82;20166;-81
2021/10/05 12:04:33;;;;;;;0.76;0.30;;;;;;;17.84;57.14;98544.03;1982065;82;20182;-81
2021/10/05 12:07:38;;;;;;;1.83;0.30;;;;;;;17.59;57.53;98547.78;1985354;82;20131;-81
2021/10/05 12:10:53;;;;;;;3.26;0.32;;;;;;;17.41;58.22;98553.88;1981091;82;20175;-82
2021/10/05 12:14:03;;;;;;;3.55;0.32;;;;;;;17.30;58.70;98541.25;1984134;82;20187;-81
2021/10/05 12:17:11;;;;;;;4.07;0.40;;;;;;;17.18;59.12;98544.41;1983065;79;36133;-80
2021/10/05 12:20:14;;;;;;;;;;;;;;;17.15;59.45;98529.66;1982359;82;20119;-80
2021/10/05 12:23:17;;;;;;;0.64;0.30;;;;;;;17.33;60.47;98535.84;1982429;82;20055;-81
2021/10/05 12:26:31;;;;;;;2.39;0.29;;;;;;;17.50;59.67;98516.72;1981788;82;20198;-81
2021/10/05 12:29:54;;;;;;;1.56;0.39;;;;;;;17.73;59.60;98510.41;1990174;82;20143;-81
2021/10/05 12:32:59;;;;;;;3.16;0.40;;;;;;;17.84;59.16;98510.75;1988471;79;52394;-81
2021/10/05 12:36:02;;;;;;;2.08;0.43;;;;;;;17.91;58.78;98514.78;1981311;82;20214;-82
2021/10/05 12:39:13;;;;;;;1.91;0.21;;;;;;;17.93;58.99;98501.56;1979257;82;20246;-83
2021/10/05 12:42:16;;;;;;;1.09;0.44;;;;;;;18.03;57.48;98503.69;1984028;82;20135;-81
2021/10/05 12:45:21;;;;;;;2.03;0.28;;;;;;;18.01;57.35;98496.81;1986530;82;20134;-82
2021/10/05 12:48:37;;;;;;;1.29;0.35;;;;;;;17.91;57.34;98498.16;1987242;82;20150;-79
2021/10/05 12:51:46;;;;;;;0.80;0.32;;;;;;;17.76;56.79;98497.97;1976906;82;20275;-81
2021/10/05 12:54:48;;;;;;;1.48;0.40;;;;;;;17.58;57.69;98485.69;1977132;82;20186;-81
2021/10/05 12:57:51;;;;;;;1.09;0.28;;;;;;;17.63;58.94;98496.84;1977957;82;20229;-82
2021/10/05 13:00:54;;;;;;;1.00;0.30;;;;;;;17.63;59.04;98482.88;1974810;82;20579;-80
2021/10/05 13:03:57;;;;;;;2.35;0.34;;;;;;;17.63;58.94;98494.22;1976053;82;20271;-81
2021/10/05 13:06:59;;;;;;;1.48;0.50;;;;;;;17.52;58.55;98480.75;1974490;82;20183;-81
2021/10/05 13:10:03;;;;;;;0.55;0.30;;;;;;;17.46;58.81;98474.00;1975741;82;20187;-80
2021/10/05 13:13:05;;;;;;;0.94;0.30;;;;;;;17.58;59.64;98469.09;1976003;82;20210;-81
2021/10/05 13:16:09;;;;;;;2.39;0.30;;;;;;;17.71;59.00;98454.50;1978782;82;20203;-81
2021/10/05 13:19:11;;;;;;;1.10;0.26;;;;;;;17.89;58.94;98465.88;1975399;82;20206;-81
2021/10/05 13:22:14;;;;;;;5.53;0.36;;;;;;;17.96;57.67;98462.06;1973200;82;20775;-81
2021/10/05 13:25:17;;;;;;;1.13;0.20;;;;;;;17.86;57.49;98450.28;1974557;82;20187;-81
2021/10/05 13:28:20;;;;;;;1.09;0.30;;;;;;;17.77;57.83;98449.81;1975574;82;20151;-81
2021/10/05 13:31:23;;;;;;;1.65;0.20;;;;;;;17.63;58.47;98459.25;1976870;79;47910;-80
2021/10/05 13:34:26;;;;;;;3.36;0.40;;;;;;;17.48;59.03;98455.56;1979358;82;20215;-80
2021/10/05 13:37:28;;;;;;;1.34;0.20;;;;;;;17.38;59.63;98449.03;1975929;82;20218;-80
2021/10/05 13:40:51;;;;;;;2.51;0.43;;;;;;;17.31;59.95;98445.00;1981351;82;20216;-81
2021/10/05 13:43:54;;;;;;;0.74;0.28;;;;;;;17.11;60.24;98436.31;1973861;82;20221;-81
2021/10/05 13:46:56;;;;;;;2.75;0.31;;;;;;;17.02;61.82;98446.34;1978892;82;20146;-80
2021/10/05 13:49:59;;;;;;;0.34;0.20;;;;;;;16.80;62.91;98451.72;1984138;82;20265;-80
2021/10/05 13:53:02;;;;;;;1.31;0.30;;;;;;;16.59;64.58;98456.09;1985688;82;20177;-80
2021/10/05 15:13:35;;;;;;;0.80;0.30;;;;;;;13.91;85.67;98485.44;2018250;71;20214;-81
2021/10/05 15:25:02;;;;;;;1.05;0.30;;;;;;;13.78;86.94;98478.91;2042803;72;20230;-81
2021/10/05 15:28:25;;;;;;;0.63;0.20;;;;;;;13.72;87.16;98479.97;1978361;82;20728;-81
2021/10/05 16:03:26;;;;;;;4.19;0.47;;;;;;;13.35;89.80;98487.22;1978396;78;20143;-81
2021/10/05 16:06:34;;;;;;;0.79;0.30;;;;;;;13.31;89.40;98512.53;1977612;82;20214;-81
2021/10/05 16:10:45;;;;;;;1.77;0.20;;;;;;;13.29;89.43;98498.69;1973979;82;20202;-82
2021/10/05 16:29:08;;;;;;;0.36;0.19;;;;;;;13.06;89.98;98514.09;1981755;82;20155;-83
2021/10/05 16:33:00;;;;;;;0.10;0.10;;;;;;;13.06;90.40;98525.38;1978696;82;20208;-82
2021/10/05 16:36:44;;;;;;;0.73;0.20;;;;;;;12.99;90.37;98526.47;1970497;82;20203;-82
2021/10/05 16:40:12;;;;;;;0.85;0.13;;;;;;;12.93;90.59;98524.88;1975127;82;20192;-82
2021/10/05 16:44:12;;;;;;;1.23;0.23;;;;;;;12.85;90.86;98545.06;1973780;82;20234;-82
2021/10/05 16:47:46;;;;;;;0.82;0.20;;;;;;;12.81;91.13;98542.59;1968932;82;20665;-78
2021/10/05 16:51:13;;;;;;;0.29;0.20;;;;;;;12.77;91.38;98552.25;1973540;82;20268;-79
2021/10/05 16:54:59;;;;;;;1.85;0.20;;;;;;;12.80;91.68;98554.78;1976558;82;20295;-81
2021/10/05 16:58:21;;;;;;;0.71;0.20;;;;;;;12.81;91.34;98564.28;1972064;82;20666;-82
2021/10/05 17:01:43;;;;;;;0.10;0.10;;;;;;;12.79;91.47;98589.53;1962888;82;676515;-81
2021/10/05 17:05:11;;;;;;;0.52;0.27;;;;;;;12.81;91.68;98595.56;1969182;82;20202;-80
2021/10/05 17:08:22;;;;;;;4.20;0.30;;;;;;;12.84;91.75;98602.44;1969509;82;20230;-81
2021/10/05 17:11:32;;;;;;;1.59;0.26;;;;;;;12.82;91.49;98609.44;1969613;82;20197;-81
2021/10/05 17:14:34;;;;;;;0.26;0.20;;;;;;;12.82;91.32;98615.50;1965805;82;20266;-81
2021/10/05 17:17:38;;;;;;;0.61;0.10;;;;;;;12.77;90.89;98621.72;1969642;79;31215;-81
2021/10/05 17:20:43;;;;;;;0.84;0.32;;;;;;;12.67;90.51;98624.56;1972858;82;20260;-81
2021/10/05 17:23:45;;;;;;;0.20;0.20;;;;;;;12.63;90.37;98641.16;1974624;82;20281;-81
2021/10/05 17:26:56;;;;;;;1.30;0.20;;;;;;;12.57;90.22;98641.31;1973897;82;20202;-82
2021/10/05 17:30:03;;;;;;;2.35;0.25;;;;;;;12.49;90.01;98648.44;1976427;82;20336;-82
2021/10/05 17:33:23;;;;;;;2.15;0.20;;;;;;;12.42;90.14;98648.66;1976063;82;20607;-81
2021/10/05 17:36:41;;;;;;;0.11;0.10;;;;;;;12.34;90.55;98652.25;1974218;82;20219;-81
2021/10/05 17:39:56;;;;;;;0.50;0.20;;;;;;;12.30;90.70;98666.25;1975000;82;20574;-81
2021/10/05 17:43:06;;;;;;;0.69;0.20;;;;;;;12.22;90.83;98664.72;1972758;82;20175;-81
2021/10/05 17:46:24;;;;;;;0.31;0.15;;;;;;;12.16;90.91;98675.25;1973503;82;20208;-81
2021/10/05 17:49:36;;;;;;;2.71;0.20;;;;;;;12.12;90.94;98673.63;1977997;82;20504;-81
2021/10/05 17:52:45;;;;;;;1.23;0.26;;;;;;;12.03;91.00;98678.16;1976062;82;20371;-81
2021/10/05 17:56:01;;;;;;;0.43;0.20;;;;;;;11.99;90.99;98684.28;1974359;82;20350;-81
2021/10/05 17:59:16;;;;;;;1.41;0.20;;;;;;;11.93;91.06;98699.19;1975174;82;20570;-81
2021/10/05 18:02:19;;;;;;;0.95;0.20;;;;;;;11.89;91.20;98692.34;1967423;80;29867;-81
2021/10/05 18:05:24;;;;;;;0.45;0.20;;;;;;;11.85;91.15;98699.34;1968402;82;20308;-81
2021/10/05 18:08:28;;;;;;;1.00;0.30;;;;;;;11.81;91.06;98702.88;1968166;82;20199;-81
2021/10/05 18:11:32;;;;;;;0.77;0.34;;;;;;;11.78;91.32;98701.19;1969668;82;20749;-80
2021/10/05 18:14:35;;;;;;;0.76;0.20;;;;;;;11.76;91.58;98705.53;1965291;82;20307;-80
2021/10/05 18:17:38;;;;;;;0.94;0.29;;;;;;;11.77;91.61;98702.06;1963295;79;29316;-81
2021/10/05 18:20:43;;;;;;;0.86;0.30;;;;;;;11.76;91.66;98707.28;1965782;82;20673;-80
2021/10/05 18:23:46;;;;;;;0.57;0.30;;;;;;;11.77;91.69;98709.84;1967274;82;20258;-81
2021/10/05 18:26:51;;;;;;;4.38;0.21;;;;;;;11.75;91.58;98708.19;1971316;82;20191;-83
2021/10/05 18:29:57;;;;;;;0.73;0.30;;;;;;;11.72;91.52;98719.50;1973741;82;20698;-81
2021/10/05 18:33:00;;;;;;;2.00;0.30;;;;;;;11.68;91.33;98720.47;1970950;82;20211;-80
2021/10/05 18:36:03;;;;;;;1.66;0.36;;;;;;;11.66;91.38;98732.59;1967696;82;20231;-81
2021/10/05 18:39:10;;;;;;;2.78;0.21;;;;;;;11.65;91.14;98737.84;1970142;82;20218;-81
2021/10/05 18:42:13;;;;;;;2.66;0.44;;;;;;;11.61;91.13;98742.25;1967928;82;20183;-82
2021/10/05 18:45:16;;;;;;;3.13;0.30;;;;;;;11.59;90.95;98744.03;1967529;82;20179;-81
2021/10/05 18:48:19;;;;;;;1.10;0.20;;;;;;;11.58;90.82;98747.50;1963271;80;23536;-82
2021/10/05 18:51:22;;;;;;;1.50;0.29;;;;;;;11.53;90.50;98756.28;1965516;83;20183;-81
2021/10/05 18:54:26;;;;;;;1.49;0.32;;;;;;;11.49;90.51;98756.34;1965209;83;20763;-81
2021/10/05 18:57:28;;;;;;;4.64;0.30;;;;;;;11.47;90.39;98773.69;1965506;83;20958;-81
2021/10/05 19:00:33;;;;;;;0.73;0.20;;;;;;;11.43;90.42;98785.03;1964665;80;20192;-82
2021/10/05 19:03:39;;;;;;;1.26;0.20;;;;;;;11.37;89.93;98779.97;1964600;82;20192;-81
2021/10/05 19:06:44;;;;;;;4.31;0.29;;;;;;;11.37;89.88;98785.16;1962213;83;20865;-82
2021/10/05 19:09:47;;;;;;;3.88;0.30;;;;;;;11.34;89.63;98794.75;1962486;83;20195;-79
2021/10/05 19:12:53;;;;;;;1.04;0.22;;;;;;;11.31;89.73;98794.78;1963077;83;20312;-79
2021/10/05 19:16:00;;;;;;;0.54;0.20;;;;;;;11.27;89.52;98803.53;1964479;79;23679;-79
2021/10/05 19:19:03;;;;;;;1.16;0.20;;;;;;;11.20;89.18;98803.63;1970223;82;20195;-79
2021/10/05 19:22:06;;;;;;;2.15;0.20;;;;;;;11.20;89.29;98814.03;1971534;82;20211;-79
2021/10/05 19:25:09;;;;;;;0.98;0.21;;;;;;;11.18;89.70;98810.59;1968365;82;20175;-78
2021/10/05 19:28:12;;;;;;;1.50;0.68;;;;;;;11.15;89.54;98820.19;1970024;82;20303;-79
2021/10/05 19:31:15;;;;;;;3.36;0.30;;;;;;;11.14;89.74;98823.69;1974472;82;20348;-79
2021/10/05 19:34:18;;;;;;;3.83;0.38;;;;;;;11.12;89.76;98831.47;1972788;82;20179;-79
2021/10/05 19:37:22;;;;;;;1.50;0.40;;;;;;;11.12;90.22;98843.59;1970512;82;20295;-79
2021/10/05 19:40:26;;;;;;;1.48;0.30;;;;;;;11.09;90.48;98841.06;1970113;82;20211;-79
2021/10/05 19:43:29;;;;;;;1.35;0.34;;;;;;;11.06;90.89;98841.97;1972543;82;20229;-78
2021/10/05 19:46:32;;;;;;;2.33;0.50;;;;;;;11.04;91.14;98848.94;1969506;79;24852;-79
2021/10/05 19:49:35;;;;;;;0.38;0.30;;;;;;;11.03;91.14;98854.16;1969564;82;20203;-79
2021/10/05 19:52:38;;;;;;;4.51;0.52;;;;;;;11.00;91.20;98869.78;1970851;82;20207;-79
2021/10/05 19:55:41;;;;;;;0.44;0.26;;;;;;;11.02;91.25;98865.41;1972539;82;20277;-79
2021/10/05 19:58:44;;;;;;;1.64;0.40;;;;;;;10.98;91.17;98872.41;1973055;82;20183;-80
2021/10/05 20:01:48;;;;;;;1.04;0.26;;;;;;;10.95;91.18;98872.47;1966642;80;25905;-78
2021/10/05 20:04:51;;;;;;;1.10;0.40;;;;;;;10.91;91.28;98875.94;1969162;82;20380;-79
2021/10/05 20:07:55;;;;;;;1.36;0.30;;;;;;;10.90;91.32;98874.22;1967882;82;20328;-79
2021/10/05 20:10:59;;;;;;;0.76;0.28;;;;;;;10.85;91.23;98894.22;1967556;82;20175;-80
2021/10/05 20:14:02;;;;;;;1.08;0.32;;;;;;;10.80;91.40;98889.09;1967749;82;20183;-78
2021/10/05 20:17:05;;;;;;;1.86;0.22;;;;;;;10.77;91.44;98894.34;1970427;79;21904;-79
2021/10/05 20:20:09;;;;;;;2.64;0.30;;;;;;;10.76;91.67;98892.59;1971330;82;20639;-78
2021/10/05 20:23:12;;;;;;;0.60;0.34;;;;;;;10.74;91.64;98909.09;1971671;82;20219;-78
2021/10/05 20:26:15;;;;;;;1.55;0.30;;;;;;;10.69;91.26;98906.56;1972326;82;20257;-78
2021/10/05 20:29:18;;;;;;;0.69;0.30;;;;;;;10.66;90.94;98906.59;1971532;82;20190;-78
2021/10/05 20:32:21;;;;;;;1.04;0.30;;;;;;;10.61;91.03;98912.72;1969470;79;48667;-78
2021/10/05 20:35:23;;;;;;;1.84;0.50;;;;;;;10.59;91.12;98915.31;1971658;82;21161;-78
2021/10/05 20:38:26;;;;;;;1.81;0.40;;;;;;;10.63;91.32;98917.03;1971122;82;20178;-78
2021/10/05 20:41:29;;;;;;;0.65;0.30;;;;;;;10.62;91.50;98928.28;1970357;82;20253;-78
2021/10/05 20:44:32;;;;;;;0.55;0.31;;;;;;;10.62;91.97;98923.09;1970985;82;20220;-78
2021/10/05 20:47:34;;;;;;;1.35;0.30;;;;;;;10.65;92.15;98938.63;1970905;79;21003;-78
2021/10/05 20:50:37;;;;;;;0.66;0.25;;;;;;;10.66;92.22;98927.38;1970972;82;20178;-78
2021/10/05 20:53:41;;;;;;;1.63;0.30;;;;;;;10.69;92.23;98940.31;1971206;82;21061;-78
2021/10/05 20:56:44;;;;;;;1.19;0.45;;;;;;;10.67;92.15;98951.59;1971155;82;20688;-78
2021/10/05 20:59:47;;;;;;;0.82;0.40;;;;;;;10.67;92.09;98943.81;1972053;82;20186;-79
2021/10/05 21:02:49;;;;;;;2.10;0.50;;;;;;;10.67;92.12;98947.25;1964687;80;22277;-78
2021/10/05 21:05:52;;;;;;;1.44;0.40;;;;;;;10.66;91.99;98942.94;1966127;82;20184;-78
2021/10/05 21:08:55;;;;;;;1.35;0.30;;;;;;;10.65;91.86;98942.97;1966414;82;20206;-79
2021/10/05 21:11:58;;;;;;;2.47;0.57;;;;;;;10.66;91.78;98940.34;1966363;82;20274;-78
2021/10/05 21:15:01;;;;;;;0.81;0.30;;;;;;;10.66;91.71;98953.34;1967942;82;20187;-78
2021/10/05 21:18:03;;;;;;;2.01;0.30;;;;;;;10.61;91.79;98962.06;1966606;79;22596;-77
